Time;durP1;ratioP1;P1;durP2;ratioP2;P2;SDS_P1;SDS_P2;PMS_P1;PMS_P2;Temp;Humidity;BMP_temperature;BMP_pressure;BME280_temperature;BME280_humidity;BME280_pressure;Samples;Min_cycle;Max_cycle;Signal;HPM_P1;HPM_P2
2021/12/17 00:00:09;;;;;;;21.33;16.70;;;;;;;;;;4962597;29;20193;-81
2021/12/17 00:05:11;;;;;;;20.13;14.82;;;;;;;;;;4966453;28;20235;-81
2021/12/17 00:07:37;;;;;;;23.70;17.30;;;;;;;;;;4950677;29;20199;-81
2021/12/17 00:10:10;;;;;;;20.17;15.20;;;;;;;;;;4966431;28;20228;-80
2021/12/17 00:12:36;;;;;;;19.25;14.13;;;;;;;;;;4964832;28;20184;-80
2021/12/17 00:15:03;;;;;;;19.17;15.10;;;;;;;;;;4949144;29;20232;-81
2021/12/17 00:17:34;;;;;;;20.83;16.00;;;;;;;;;;4966458;29;20204;-81
2021/12/17 00:50:23;;;;;;;21.15;14.25;;;;;;;;;;4909276;29;20247;-80
2021/12/17 00:52:49;;;;;;;26.35;15.90;;;;;;;;;;4894752;29;20498;-80
2021/12/17 00:55:15;;;;;;;28.08;17.90;;;;;;;;;;4908446;29;20533;-81
2021/12/17 00:57:43;;;;;;;22.98;15.48;;;;;;;;;;4907102;29;20284;-81
2021/12/17 01:00:15;;;;;;;22.15;15.32;;;;;;;;;;4904500;29;20577;-81
2021/12/17 01:02:41;;;;;;;21.45;15.40;;;;;;;;;;4919367;29;20181;-81
2021/12/17 01:05:10;;;;;;;23.65;15.70;;;;;;;;;;4904646;29;20222;-81
2021/12/17 01:07:37;;;;;;;22.98;16.05;;;;;;;;;;4908061;29;20258;-81
2021/12/17 01:10:06;;;;;;;23.60;15.95;;;;;;;;;;4908454;29;20273;-81
2021/12/17 01:12:32;;;;;;;23.58;16.88;;;;;;;;;;4903803;29;20198;-80
2021/12/17 01:14:58;;;;;;;20.98;15.70;;;;;;;;;;4921239;29;20230;-81
2021/12/17 01:17:26;;;;;;;20.70;15.27;;;;;;;;;;4908421;29;20223;-81
2021/12/17 01:20:17;;;;;;;21.80;15.43;;;;;;;;;;4907516;29;20198;-80
2021/12/17 01:25:46;;;;;;;24.00;15.57;;;;;;;;;;4907414;29;20197;-81
2021/12/17 01:36:21;;;;;;;24.52;15.85;;;;;;;;;;4952006;29;20216;-81
2021/12/17 01:44:02;;;;;;;20.63;15.05;;;;;;;;;;4965452;29;20201;-80
2021/12/17 01:46:30;;;;;;;21.70;14.15;;;;;;;;;;4965056;29;20184;-81
2021/12/17 01:49:17;;;;;;;23.90;15.25;;;;;;;;;;4961370;29;20219;-80
2021/12/17 01:59:56;;;;;;;30.73;18.08;;;;;;;;;;4965785;28;20216;-81
2021/12/17 02:02:23;;;;;;;28.02;16.90;;;;;;;;;;4947113;29;20179;-81
2021/12/17 02:04:49;;;;;;;25.92;16.77;;;;;;;;;;4964947;28;20218;-81
2021/12/17 02:07:15;;;;;;;24.88;17.02;;;;;;;;;;4965449;29;20180;-81
2021/12/17 02:29:10;;;;;;;32.83;17.77;;;;;;;;;;4964071;28;20206;-81
2021/12/17 02:31:37;;;;;;;33.38;18.73;;;;;;;;;;4964579;28;20206;-81
2021/12/17 02:34:10;;;;;;;34.50;18.75;;;;;;;;;;4965156;28;20185;-81
2021/12/17 02:36:39;;;;;;;29.30;19.02;;;;;;;;;;4944953;29;20184;-82
2021/12/17 02:40:21;;;;;;;25.63;18.13;;;;;;;;;;4964318;28;20553;-81
2021/12/17 02:47:58;;;;;;;33.40;17.75;;;;;;;;;;4923298;29;20259;-82
2021/12/17 02:50:25;;;;;;;30.35;19.33;;;;;;;;;;4921100;29;20214;-81
2021/12/17 02:52:52;;;;;;;29.27;17.40;;;;;;;;;;4923720;29;20655;-81
2021/12/17 02:55:18;;;;;;;31.02;17.27;;;;;;;;;;4923778;29;20690;-81
2021/12/17 02:57:45;;;;;;;28.40;17.10;;;;;;;;;;4923628;29;20193;-81
2021/12/17 03:00:11;;;;;;;26.90;17.33;;;;;;;;;;4911177;29;20184;-81
2021/12/17 03:02:39;;;;;;;28.50;18.85;;;;;;;;;;4917109;29;20204;-81
2021/12/17 03:05:06;;;;;;;26.77;16.52;;;;;;;;;;4923304;29;20225;-81
2021/12/17 03:07:36;;;;;;;30.88;19.67;;;;;;;;;;4922467;29;20205;-81
2021/12/17 03:10:04;;;;;;;27.17;17.48;;;;;;;;;;4923827;29;20225;-81
2021/12/17 03:12:43;;;;;;;30.13;18.23;;;;;;;;;;4923423;29;20189;-80
2021/12/17 03:15:24;;;;;;;29.08;17.50;;;;;;;;;;4932259;29;20208;-81
2021/12/17 03:23:39;;;;;;;26.15;17.15;;;;;;;;;;4964896;29;20187;-81
2021/12/17 03:26:15;;;;;;;36.03;18.58;;;;;;;;;;4965191;29;20199;-80
2021/12/17 03:28:43;;;;;;;26.88;15.77;;;;;;;;;;4966587;28;20188;-81
2021/12/17 03:31:10;;;;;;;25.27;16.92;;;;;;;;;;4964959;28;20267;-81
2021/12/17 03:33:38;;;;;;;25.50;15.77;;;;;;;;;;4964696;29;20184;-81
2021/12/17 03:36:04;;;;;;;25.75;17.27;;;;;;;;;;4964219;28;20595;-81
2021/12/17 03:38:30;;;;;;;25.95;16.70;;;;;;;;;;4964570;29;20164;-81
2021/12/17 03:41:18;;;;;;;30.30;18.45;;;;;;;;;;4955536;28;20276;-81
2021/12/17 03:43:44;;;;;;;23.48;16.40;;;;;;;;;;4964712;28;20193;-81
2021/12/17 03:46:10;;;;;;;33.03;18.27;;;;;;;;;;4947719;29;20195;-81
2021/12/17 03:48:38;;;;;;;30.77;18.80;;;;;;;;;;4967376;28;20224;-81
2021/12/17 03:51:05;;;;;;;27.65;17.10;;;;;;;;;;4950319;28;20426;-81
2021/12/17 03:53:31;;;;;;;26.02;16.20;;;;;;;;;;4967393;29;20249;-81
2021/12/17 03:55:58;;;;;;;25.95;16.08;;;;;;;;;;4967782;29;20188;-82
2021/12/17 03:58:24;;;;;;;27.63;16.27;;;;;;;;;;4966766;28;20732;-81
2021/12/17 04:00:50;;;;;;;26.73;17.92;;;;;;;;;;4947788;29;20255;-81
2021/12/17 04:03:16;;;;;;;27.38;18.52;;;;;;;;;;4967820;28;20247;-81
2021/12/17 04:05:42;;;;;;;28.40;16.88;;;;;;;;;;4950745;29;20216;-81
2021/12/17 04:08:08;;;;;;;22.95;15.73;;;;;;;;;;4963324;29;20177;-81
2021/12/17 04:10:42;;;;;;;33.45;17.17;;;;;;;;;;4958407;29;20236;-81
2021/12/17 04:13:42;;;;;;;25.33;16.20;;;;;;;;;;4959142;29;20176;-81
2021/12/17 04:16:07;;;;;;;21.98;14.82;;;;;;;;;;4964889;28;20197;-81
2021/12/17 04:18:34;;;;;;;20.65;15.35;;;;;;;;;;4967306;28;20184;-80
2021/12/17 04:21:02;;;;;;;24.33;16.73;;;;;;;;;;4966739;28;20180;-80
2021/12/17 04:23:28;;;;;;;25.10;16.02;;;;;;;;;;4969035;29;20313;-80
2021/12/17 04:25:54;;;;;;;27.88;17.00;;;;;;;;;;4963049;28;20207;-80
2021/12/17 04:28:21;;;;;;;21.05;14.93;;;;;;;;;;4946007;29;20188;-80
2021/12/17 04:30:47;;;;;;;24.25;15.50;;;;;;;;;;4956716;28;20220;-80
2021/12/17 04:33:14;;;;;;;26.65;17.52;;;;;;;;;;4967261;29;20176;-80
2021/12/17 04:35:41;;;;;;;21.08;15.77;;;;;;;;;;4967913;29;20635;-80
2021/12/17 04:38:09;;;;;;;21.63;15.32;;;;;;;;;;4966112;28;20275;-80
2021/12/17 04:40:37;;;;;;;24.55;16.70;;;;;;;;;;4967007;28;20491;-80
2021/12/17 04:46:37;;;;;;;24.13;16.70;;;;;;;;;;4966169;28;20307;-80
2021/12/17 04:59:36;;;;;;;22.35;15.48;;;;;;;;;;4967631;29;20836;-80
2021/12/17 05:02:03;;;;;;;24.10;16.42;;;;;;;;;;4966597;29;20188;-80
2021/12/17 05:04:29;;;;;;;25.42;16.35;;;;;;;;;;4965056;28;20191;-80
2021/12/17 05:06:55;;;;;;;21.27;14.90;;;;;;;;;;4966710;28;20642;-80
2021/12/17 05:09:35;;;;;;;24.13;16.00;;;;;;;;;;4966548;28;20243;-80
2021/12/17 05:19:58;;;;;;;25.42;16.50;;;;;;;;;;4966114;28;20215;-81
2021/12/17 05:22:26;;;;;;;22.90;15.40;;;;;;;;;;4966767;28;20203;-81
2021/12/17 05:24:52;;;;;;;27.55;15.50;;;;;;;;;;4965916;28;20191;-81
2021/12/17 05:27:18;;;;;;;25.13;17.20;;;;;;;;;;4965714;28;20255;-81
2021/12/17 05:29:45;;;;;;;22.83;16.02;;;;;;;;;;4966568;29;20177;-80
2021/12/17 05:32:11;;;;;;;22.13;15.32;;;;;;;;;;4948561;29;20208;-80
2021/12/17 05:34:37;;;;;;;24.85;17.52;;;;;;;;;;4965967;28;20185;-80
2021/12/17 05:37:03;;;;;;;21.20;15.50;;;;;;;;;;4966531;28;20184;-81
2021/12/17 05:39:30;;;;;;;25.80;16.23;;;;;;;;;;4945741;29;20193;-81
2021/12/17 05:41:55;;;;;;;21.67;15.80;;;;;;;;;;4949128;28;20617;-80
2021/12/17 05:44:22;;;;;;;21.55;15.05;;;;;;;;;;4966295;29;20187;-81
2021/12/17 05:46:50;;;;;;;21.83;14.85;;;;;;;;;;4944987;29;20192;-80
2021/12/17 05:49:20;;;;;;;25.13;16.23;;;;;;;;;;4965242;29;20230;-81
2021/12/17 05:51:47;;;;;;;23.60;16.80;;;;;;;;;;4965473;29;20220;-80
2021/12/17 05:54:13;;;;;;;22.23;15.90;;;;;;;;;;4964977;28;20187;-81
2021/12/17 05:56:40;;;;;;;24.27;17.83;;;;;;;;;;4933218;29;20240;-81
2021/12/17 05:59:06;;;;;;;26.17;17.70;;;;;;;;;;4964730;28;20231;-81
2021/12/17 06:01:32;;;;;;;21.67;14.60;;;;;;;;;;4964638;29;20195;-81
2021/12/17 06:03:58;;;;;;;22.70;15.88;;;;;;;;;;4963888;28;20215;-81
2021/12/17 06:06:25;;;;;;;22.83;15.55;;;;;;;;;;4945699;29;20276;-81
2021/12/17 06:08:51;;;;;;;23.52;16.48;;;;;;;;;;4962025;29;20185;-80
2021/12/17 06:11:17;;;;;;;23.95;16.13;;;;;;;;;;4964252;29;20208;-81
2021/12/17 06:13:43;;;;;;;25.65;16.30;;;;;;;;;;4965427;28;20673;-81
2021/12/17 06:16:09;;;;;;;20.08;14.75;;;;;;;;;;4964361;29;20180;-81
2021/12/17 06:18:35;;;;;;;23.65;16.27;;;;;;;;;;4960704;28;20191;-81
2021/12/17 06:21:01;;;;;;;23.48;16.42;;;;;;;;;;4962733;28;20291;-81
2021/12/17 06:23:27;;;;;;;23.27;17.42;;;;;;;;;;4964405;29;20190;-83
2021/12/17 06:25:53;;;;;;;20.85;15.43;;;;;;;;;;4960562;29;20192;-82
2021/12/17 06:28:19;;;;;;;26.00;16.70;;;;;;;;;;4958443;28;20244;-82
2021/12/17 06:30:45;;;;;;;23.23;16.67;;;;;;;;;;4965009;29;20208;-82
2021/12/17 06:33:11;;;;;;;23.52;16.75;;;;;;;;;;4942861;29;20196;-82
2021/12/17 06:35:37;;;;;;;23.23;16.85;;;;;;;;;;4948930;29;20176;-82
2021/12/17 06:38:04;;;;;;;23.63;18.00;;;;;;;;;;4945798;29;20196;-83
2021/12/17 06:40:30;;;;;;;29.55;17.45;;;;;;;;;;4953956;28;20181;-82
2021/12/17 06:42:57;;;;;;;23.25;15.73;;;;;;;;;;4960649;28;20199;-83
2021/12/17 06:45:51;;;;;;;23.73;16.63;;;;;;;;;;4943966;29;20646;-83
2021/12/17 06:48:22;;;;;;;20.80;15.60;;;;;;;;;;4951512;29;20188;-82
2021/12/17 07:17:25;;;;;;;24.33;14.55;;;;;;;;;;4960825;29;20211;-83
2021/12/17 07:33:17;;;;;;;22.17;14.00;;;;;;;;;;4967970;28;20297;-82
2021/12/17 07:40:54;;;;;;;25.23;15.70;;;;;;;;;;4967690;29;20210;-81
2021/12/17 07:43:40;;;;;;;24.95;13.50;;;;;;;;;;4964069;28;20192;-83
2021/12/17 07:46:11;;;;;;;18.10;13.77;;;;;;;;;;4947773;29;20690;-82
2021/12/17 07:48:38;;;;;;;24.83;15.65;;;;;;;;;;4938242;29;20196;-82
2021/12/17 07:51:05;;;;;;;24.58;16.45;;;;;;;;;;4967805;29;20354;-82
2021/12/17 07:53:31;;;;;;;24.60;15.65;;;;;;;;;;4974258;28;20264;-82
2021/12/17 07:56:00;;;;;;;18.58;12.38;;;;;;;;;;4949703;29;20243;-81
2021/12/17 07:58:26;;;;;;;21.85;15.35;;;;;;;;;;4966394;29;20190;-82
2021/12/17 08:00:52;;;;;;;20.80;13.02;;;;;;;;;;4948138;28;20260;-81
2021/12/17 08:03:18;;;;;;;21.38;14.98;;;;;;;;;;4978141;28;20223;-85
2021/12/17 08:05:47;;;;;;;22.23;14.35;;;;;;;;;;4960364;28;20630;-85
2021/12/17 08:08:13;;;;;;;19.05;13.13;;;;;;;;;;4946039;29;20189;-85
2021/12/17 08:10:39;;;;;;;26.88;15.90;;;;;;;;;;4960243;28;20227;-87
2021/12/17 08:13:07;;;;;;;22.17;14.38;;;;;;;;;;4946759;29;20192;-86
2021/12/17 08:15:42;;;;;;;19.88;13.55;;;;;;;;;;4949063;29;20267;-86
2021/12/17 08:26:27;;;;;;;21.67;16.15;;;;;;;;;;4894082;29;20223;-87
2021/12/17 08:31:24;;;;;;;23.92;14.95;;;;;;;;;;4898436;29;20246;-85
2021/12/17 08:33:51;;;;;;;25.77;14.70;;;;;;;;;;4879652;29;20191;-85
2021/12/17 08:36:17;;;;;;;21.73;14.88;;;;;;;;;;4885434;29;20198;-86
2021/12/17 08:38:49;;;;;;;26.48;15.98;;;;;;;;;;4872680;29;20176;-87
2021/12/17 08:41:15;;;;;;;32.17;16.40;;;;;;;;;;4887119;29;20303;-89
2021/12/17 08:43:42;;;;;;;19.45;13.93;;;;;;;;;;4886368;29;20208;-86
2021/12/17 08:46:08;;;;;;;29.60;17.05;;;;;;;;;;4888397;29;20191;-84
2021/12/17 08:48:34;;;;;;;27.50;16.73;;;;;;;;;;4896364;29;20207;-86
2021/12/17 08:51:01;;;;;;;29.92;15.65;;;;;;;;;;4899345;29;20210;-84
2021/12/17 08:53:27;;;;;;;25.00;14.82;;;;;;;;;;4876551;29;20179;-87
2021/12/17 08:55:53;;;;;;;27.45;16.25;;;;;;;;;;4898994;29;20196;-86
2021/12/17 08:58:19;;;;;;;24.40;15.90;;;;;;;;;;4961111;29;20189;-86
2021/12/17 09:00:46;;;;;;;23.85;15.35;;;;;;;;;;4949244;29;20203;-85
2021/12/17 09:03:12;;;;;;;29.33;16.73;;;;;;;;;;4962001;29;20239;-87
2021/12/17 09:05:39;;;;;;;25.27;15.27;;;;;;;;;;4940257;29;20213;-85
2021/12/17 09:08:06;;;;;;;25.38;14.70;;;;;;;;;;4964800;29;20184;-87
2021/12/17 09:10:33;;;;;;;25.50;15.00;;;;;;;;;;4944574;29;20233;-90
2021/12/17 09:12:59;;;;;;;24.48;15.40;;;;;;;;;;4958360;28;20185;-87
2021/12/17 09:15:25;;;;;;;22.98;14.60;;;;;;;;;;4946773;28;20268;-86
2021/12/17 09:17:51;;;;;;;25.02;16.17;;;;;;;;;;4937615;28;20874;-83
2021/12/17 09:20:17;;;;;;;22.88;14.00;;;;;;;;;;4966721;28;20186;-83
2021/12/17 09:22:44;;;;;;;22.08;14.65;;;;;;;;;;4948844;29;20185;-84
2021/12/17 09:25:10;;;;;;;25.98;15.85;;;;;;;;;;4965525;29;20192;-84
2021/12/17 09:27:36;;;;;;;23.52;15.30;;;;;;;;;;4966415;29;20769;-83
2021/12/17 09:30:04;;;;;;;23.58;13.93;;;;;;;;;;4949051;28;20184;-84
2021/12/17 09:32:30;;;;;;;27.63;16.05;;;;;;;;;;4950275;29;20173;-85
2021/12/17 09:34:56;;;;;;;24.67;15.20;;;;;;;;;;4947481;29;20185;-85
2021/12/17 09:37:22;;;;;;;25.92;15.43;;;;;;;;;;4947675;29;20216;-83
2021/12/17 09:39:48;;;;;;;24.13;14.83;;;;;;;;;;4944776;29;20220;-84
2021/12/17 09:42:14;;;;;;;22.02;13.75;;;;;;;;;;4949589;29;20947;-81
2021/12/17 09:44:41;;;;;;;22.15;12.80;;;;;;;;;;4963395;29;20185;-83
2021/12/17 09:47:08;;;;;;;22.15;14.18;;;;;;;;;;4965835;28;20207;-83
2021/12/17 09:49:34;;;;;;;21.48;13.73;;;;;;;;;;4965765;28;20186;-83
2021/12/17 09:52:00;;;;;;;26.20;14.93;;;;;;;;;;4946025;29;20243;-83
2021/12/17 09:54:27;;;;;;;21.63;13.35;;;;;;;;;;4946103;29;20257;-82
2021/12/17 09:56:53;;;;;;;21.23;13.45;;;;;;;;;;4966236;28;20176;-84
2021/12/17 09:59:19;;;;;;;23.73;14.65;;;;;;;;;;4965967;29;20179;-84
2021/12/17 10:01:45;;;;;;;22.83;13.73;;;;;;;;;;4965605;29;20212;-84
2021/12/17 10:04:21;;;;;;;21.30;13.68;;;;;;;;;;4945757;29;20215;-84
2021/12/17 10:06:48;;;;;;;23.80;13.35;;;;;;;;;;4924163;29;20205;-84
2021/12/17 10:09:15;;;;;;;27.05;14.85;;;;;;;;;;4924075;29;20204;-83
2021/12/17 10:12:00;;;;;;;20.10;13.25;;;;;;;;;;4927150;29;20229;-83
2021/12/17 10:14:26;;;;;;;23.83;13.85;;;;;;;;;;4925104;29;20185;-84
2021/12/17 10:17:04;;;;;;;19.30;13.32;;;;;;;;;;4919926;29;20205;-80
2021/12/17 10:19:49;;;;;;;23.13;12.88;;;;;;;;;;4921733;29;20331;-85
2021/12/17 10:22:17;;;;;;;20.80;13.55;;;;;;;;;;4927382;29;20194;-83
2021/12/17 10:24:45;;;;;;;18.92;13.10;;;;;;;;;;4927225;29;20193;-84
2021/12/17 10:27:25;;;;;;;18.15;13.15;;;;;;;;;;4927308;29;20253;-83
2021/12/17 10:29:51;;;;;;;20.20;13.95;;;;;;;;;;4922540;29;20185;-85
2021/12/17 10:32:21;;;;;;;20.10;14.32;;;;;;;;;;4927991;29;20182;-83
2021/12/17 10:35:08;;;;;;;19.35;13.05;;;;;;;;;;4927406;29;20260;-83
2021/12/17 10:37:39;;;;;;;19.67;12.40;;;;;;;;;;4926541;29;20237;-83
2021/12/17 10:40:14;;;;;;;18.52;13.98;;;;;;;;;;4926560;29;20262;-83
2021/12/17 10:42:48;;;;;;;17.77;12.85;;;;;;;;;;4926951;29;20181;-82
2021/12/17 10:45:23;;;;;;;23.30;15.25;;;;;;;;;;4912099;29;20214;-83
2021/12/17 10:48:01;;;;;;;25.23;14.80;;;;;;;;;;4926116;29;20177;-82
2021/12/17 10:50:28;;;;;;;20.83;13.95;;;;;;;;;;4925803;29;20248;-84
2021/12/17 10:52:57;;;;;;;24.67;14.82;;;;;;;;;;4919530;29;20186;-84
2021/12/17 10:55:24;;;;;;;20.55;14.35;;;;;;;;;;4920476;29;20193;-83
2021/12/17 10:57:51;;;;;;;23.65;14.93;;;;;;;;;;4926773;29;20218;-83
2021/12/17 11:00:17;;;;;;;22.58;15.55;;;;;;;;;;4924559;29;20217;-82
2021/12/17 11:02:51;;;;;;;23.80;15.13;;;;;;;;;;4923674;29;20188;-83
2021/12/17 11:05:17;;;;;;;23.23;15.40;;;;;;;;;;4942103;29;20314;-82
2021/12/17 11:07:47;;;;;;;22.90;14.75;;;;;;;;;;4944383;29;20208;-83
2021/12/17 11:10:15;;;;;;;22.20;14.02;;;;;;;;;;4964227;28;20231;-84
2021/12/17 11:12:42;;;;;;;23.55;15.48;;;;;;;;;;4945033;29;20177;-84
2021/12/17 11:15:08;;;;;;;23.55;14.77;;;;;;;;;;4964359;28;20188;-83
2021/12/17 11:17:34;;;;;;;20.70;13.57;;;;;;;;;;4956325;29;20169;-84
2021/12/17 11:20:03;;;;;;;18.67;13.45;;;;;;;;;;4961375;29;20283;-82
2021/12/17 11:22:30;;;;;;;20.10;14.30;;;;;;;;;;4944467;29;20181;-83
2021/12/17 11:24:56;;;;;;;22.70;16.20;;;;;;;;;;4944985;29;20233;-83
2021/12/17 11:27:22;;;;;;;21.40;14.80;;;;;;;;;;4964410;28;20187;-84
2021/12/17 11:29:49;;;;;;;22.15;14.90;;;;;;;;;;4947198;28;20187;-84
2021/12/17 11:32:18;;;;;;;24.17;14.75;;;;;;;;;;4948307;29;20192;-84
2021/12/17 11:34:44;;;;;;;19.60;13.55;;;;;;;;;;4964317;28;20192;-83
2021/12/17 11:37:11;;;;;;;23.77;14.10;;;;;;;;;;4944578;29;20188;-82
2021/12/17 11:39:41;;;;;;;20.45;12.80;;;;;;;;;;4944738;29;20580;-83
2021/12/17 11:42:14;;;;;;;18.15;13.20;;;;;;;;;;4964331;28;20279;-83
2021/12/17 11:44:42;;;;;;;18.95;12.77;;;;;;;;;;4959242;29;20204;-81
2021/12/17 11:47:10;;;;;;;19.55;12.10;;;;;;;;;;4957624;28;20188;-88
2021/12/17 11:49:56;;;;;;;20.70;14.43;;;;;;;;;;4958053;28;20547;-89
2021/12/17 11:52:41;;;;;;;19.88;13.50;;;;;;;;;;4946447;29;20192;-83
2021/12/17 11:55:24;;;;;;;23.23;13.98;;;;;;;;;;4945334;29;20192;-88
2021/12/17 11:57:51;;;;;;;19.75;13.60;;;;;;;;;;4946867;28;20189;-90
2021/12/17 12:00:19;;;;;;;21.75;14.05;;;;;;;;;;4947995;29;20276;-86
2021/12/17 12:02:53;;;;;;;22.58;12.50;;;;;;;;;;4967816;28;20536;-87
2021/12/17 12:05:35;;;;;;;19.85;13.73;;;;;;;;;;4946705;29;20216;-85
2021/12/17 12:08:20;;;;;;;18.92;12.38;;;;;;;;;;4949651;29;20239;-86
2021/12/17 12:11:02;;;;;;;17.42;13.50;;;;;;;;;;4951076;29;20223;-88
2021/12/17 12:13:42;;;;;;;18.13;12.20;;;;;;;;;;4950232;29;20228;-87
2021/12/17 12:16:09;;;;;;;18.73;13.60;;;;;;;;;;4949401;29;20184;-90
2021/12/17 12:18:55;;;;;;;21.95;12.70;;;;;;;;;;4949141;29;20192;-84
2021/12/17 12:21:22;;;;;;;19.35;12.35;;;;;;;;;;4944827;29;20261;-85
2021/12/17 12:23:50;;;;;;;15.23;11.40;;;;;;;;;;4962280;28;20171;-86
2021/12/17 12:26:18;;;;;;;19.20;13.20;;;;;;;;;;4949816;29;20268;-86
2021/12/17 12:28:47;;;;;;;16.88;11.85;;;;;;;;;;4959814;28;20226;-90
2021/12/17 12:31:26;;;;;;;16.25;12.25;;;;;;;;;;4956194;29;20204;-86
2021/12/17 12:34:05;;;;;;;14.43;11.70;;;;;;;;;;4950021;29;20180;-89
2021/12/17 12:36:55;;;;;;;14.52;11.45;;;;;;;;;;4950728;29;20180;-85
2021/12/17 12:39:21;;;;;;;17.33;11.98;;;;;;;;;;4909778;29;20190;-89
2021/12/17 12:41:48;;;;;;;16.90;13.32;;;;;;;;;;4915318;29;20190;-85
2021/12/17 12:44:14;;;;;;;17.17;12.65;;;;;;;;;;4915247;29;20209;-86
2021/12/17 12:46:56;;;;;;;15.73;11.63;;;;;;;;;;4892013;29;20198;-89
2021/12/17 12:49:59;;;;;;;13.23;10.48;;;;;;;;;;4906802;29;20253;-84
2021/12/17 12:52:31;;;;;;;17.05;13.57;;;;;;;;;;4840003;29;20203;-86
2021/12/17 12:55:05;;;;;;;21.38;14.20;;;;;;;;;;4834604;29;20208;-84
2021/12/17 12:57:33;;;;;;;22.55;14.20;;;;;;;;;;4833095;29;20225;-86
2021/12/17 13:00:00;;;;;;;22.30;14.80;;;;;;;;;;4833997;29;20355;-87
2021/12/17 13:02:26;;;;;;;25.50;15.80;;;;;;;;;;4847858;29;20221;-85
2021/12/17 13:04:54;;;;;;;22.25;13.55;;;;;;;;;;4834038;29;20221;-87
2021/12/17 13:07:31;;;;;;;25.98;16.25;;;;;;;;;;4831948;29;20568;-83
2021/12/17 13:09:57;;;;;;;19.60;13.43;;;;;;;;;;4830799;29;20236;-90
2021/12/17 13:12:25;;;;;;;23.63;13.98;;;;;;;;;;4831614;29;20707;-85
2021/12/17 13:14:55;;;;;;;23.73;15.52;;;;;;;;;;4835415;29;20196;-87
2021/12/17 13:17:52;;;;;;;25.13;14.70;;;;;;;;;;4884013;29;20189;-86
2021/12/17 13:23:12;;;;;;;26.25;14.13;;;;;;;;;;4885934;29;20278;-86
2021/12/17 13:25:38;;;;;;;16.13;12.25;;;;;;;;;;4901273;29;20672;-88
2021/12/17 13:28:04;;;;;;;19.38;13.43;;;;;;;;;;4949863;29;20254;-86
2021/12/17 13:30:30;;;;;;;22.77;14.05;;;;;;;;;;4947887;29;20232;-86
2021/12/17 13:32:56;;;;;;;21.40;14.88;;;;;;;;;;4948895;29;20181;-88
2021/12/17 13:35:22;;;;;;;20.85;13.70;;;;;;;;;;4948923;29;20187;-85
2021/12/17 13:37:57;;;;;;;19.58;13.32;;;;;;;;;;4964019;28;20244;-90
2021/12/17 13:40:25;;;;;;;19.67;14.27;;;;;;;;;;4942340;29;20183;-87
2021/12/17 13:42:51;;;;;;;27.98;13.63;;;;;;;;;;4949034;29;20665;-88
2021/12/17 13:45:20;;;;;;;20.40;14.23;;;;;;;;;;4947926;29;20244;-84
2021/12/17 13:47:47;;;;;;;17.48;13.60;;;;;;;;;;4946626;28;20250;-87
2021/12/17 13:50:18;;;;;;;19.58;12.07;;;;;;;;;;4957535;29;20657;-87
2021/12/17 13:52:47;;;;;;;23.27;14.50;;;;;;;;;;4960111;28;20252;-82
2021/12/17 13:55:14;;;;;;;20.10;13.20;;;;;;;;;;4962944;28;20188;-84
2021/12/17 13:57:41;;;;;;;19.92;12.95;;;;;;;;;;4961079;29;20192;-88
2021/12/17 14:00:10;;;;;;;20.75;13.90;;;;;;;;;;4946014;29;20185;-87
2021/12/17 14:02:37;;;;;;;20.45;13.77;;;;;;;;;;4965739;29;20176;-88
2021/12/17 14:05:08;;;;;;;20.00;13.73;;;;;;;;;;4962446;28;20216;-86
2021/12/17 14:07:35;;;;;;;24.27;14.13;;;;;;;;;;4963194;29;20184;-89
2021/12/17 14:10:05;;;;;;;20.08;14.65;;;;;;;;;;4953558;28;20205;-88
2021/12/17 14:12:33;;;;;;;23.27;14.48;;;;;;;;;;4962716;29;20248;-86
2021/12/17 14:15:19;;;;;;;21.30;14.38;;;;;;;;;;4947561;29;20224;-92
2021/12/17 14:17:48;;;;;;;25.60;14.82;;;;;;;;;;4962253;29;20180;-87
2021/12/17 14:20:16;;;;;;;21.17;14.13;;;;;;;;;;4946994;29;20181;-85
2021/12/17 14:22:43;;;;;;;17.65;13.13;;;;;;;;;;4945510;29;20180;-90
2021/12/17 14:25:28;;;;;;;20.25;13.75;;;;;;;;;;4948100;29;20271;-88
2021/12/17 14:27:55;;;;;;;20.08;15.70;;;;;;;;;;4945788;29;20180;-86
2021/12/17 14:30:33;;;;;;;21.73;13.05;;;;;;;;;;4936860;29;20693;-88
2021/12/17 14:32:59;;;;;;;16.90;11.80;;;;;;;;;;4947864;28;20211;-87
2021/12/17 14:35:44;;;;;;;19.52;12.23;;;;;;;;;;4947336;29;20428;-92
2021/12/17 14:38:10;;;;;;;22.25;13.73;;;;;;;;;;4963805;29;20208;-86
2021/12/17 14:40:50;;;;;;;20.30;12.65;;;;;;;;;;4945490;29;20195;-82
2021/12/17 14:43:34;;;;;;;18.80;11.20;;;;;;;;;;4947212;29;20207;-89
2021/12/17 14:48:51;;;;;;;20.92;12.52;;;;;;;;;;4962752;28;20188;-86
2021/12/17 15:04:43;;;;;;;17.15;9.90;;;;;;;;;;4957688;28;20209;-85
2021/12/17 15:07:09;;;;;;;17.60;10.65;;;;;;;;;;4953012;29;20199;-84
2021/12/17 15:09:39;;;;;;;15.98;9.90;;;;;;;;;;4958753;29;20227;-86
2021/12/17 15:12:23;;;;;;;16.05;9.90;;;;;;;;;;4945440;29;20220;-88
2021/12/17 15:14:49;;;;;;;15.10;9.77;;;;;;;;;;4963097;29;20176;-91
2021/12/17 15:17:15;;;;;;;14.65;9.35;;;;;;;;;;4963937;29;20178;-87
2021/12/17 15:19:41;;;;;;;13.73;8.87;;;;;;;;;;4942909;29;20244;-88
2021/12/17 15:22:07;;;;;;;16.67;9.90;;;;;;;;;;4952779;29;20454;-85
2021/12/17 15:24:33;;;;;;;12.93;9.20;;;;;;;;;;4944253;29;21002;-85
2021/12/17 15:26:59;;;;;;;14.32;8.00;;;;;;;;;;4962603;28;20188;-86
2021/12/17 15:29:25;;;;;;;12.43;8.95;;;;;;;;;;4963987;29;20239;-83
2021/12/17 15:31:53;;;;;;;11.73;8.30;;;;;;;;;;4944720;29;20286;-85
2021/12/17 15:34:19;;;;;;;11.10;8.57;;;;;;;;;;4962218;29;20558;-87
2021/12/17 15:36:45;;;;;;;14.50;9.45;;;;;;;;;;4937066;29;20181;-87
2021/12/17 15:39:11;;;;;;;14.13;10.10;;;;;;;;;;4947731;29;20188;-83
2021/12/17 15:41:40;;;;;;;15.50;10.60;;;;;;;;;;4951259;29;20216;-84
2021/12/17 15:44:07;;;;;;;14.95;10.40;;;;;;;;;;4965472;28;20451;-83
2021/12/17 15:46:33;;;;;;;14.82;9.35;;;;;;;;;;4941162;29;20189;-83
2021/12/17 15:48:59;;;;;;;19.70;12.35;;;;;;;;;;4958369;28;20202;-83
2021/12/17 15:51:25;;;;;;;19.15;11.90;;;;;;;;;;4971468;28;20236;-83
2021/12/17 15:53:52;;;;;;;18.73;11.73;;;;;;;;;;4972887;29;20181;-83
2021/12/17 15:56:18;;;;;;;19.80;11.40;;;;;;;;;;4974816;29;20201;-83
2021/12/17 15:58:44;;;;;;;18.42;12.85;;;;;;;;;;4962955;29;20193;-83
2021/12/17 16:01:10;;;;;;;18.70;10.80;;;;;;;;;;4958146;28;20195;-83
2021/12/17 16:03:37;;;;;;;19.60;11.85;;;;;;;;;;4965197;28;20275;-84
2021/12/17 16:06:05;;;;;;;16.10;11.88;;;;;;;;;;4961394;29;20232;-81
2021/12/17 16:08:34;;;;;;;19.10;12.00;;;;;;;;;;4956133;29;20197;-82
2021/12/17 16:21:48;;;;;;;17.10;10.52;;;;;;;;;;4912836;29;20197;-84
2021/12/17 16:24:14;;;;;;;15.45;11.50;;;;;;;;;;4905689;29;20227;-82
2021/12/17 16:26:40;;;;;;;18.10;10.45;;;;;;;;;;4912666;29;20268;-82
2021/12/17 16:29:08;;;;;;;20.20;11.25;;;;;;;;;;4893792;29;20339;-84
2021/12/17 16:31:34;;;;;;;22.52;11.25;;;;;;;;;;4894179;29;20206;-84
2021/12/17 16:34:02;;;;;;;16.60;11.60;;;;;;;;;;4893835;29;20284;-83
2021/12/17 16:36:28;;;;;;;18.15;12.52;;;;;;;;;;4907193;29;20187;-83
2021/12/17 16:38:55;;;;;;;18.95;11.70;;;;;;;;;;4920469;29;20209;-84
2021/12/17 16:41:23;;;;;;;15.00;11.05;;;;;;;;;;4920169;29;20224;-84
2021/12/17 16:43:57;;;;;;;23.77;12.48;;;;;;;;;;4909797;29;20296;-83
2021/12/17 16:47:00;;;;;;;20.88;11.90;;;;;;;;;;4894908;29;20282;-86
2021/12/17 16:49:14;;;;;;;18.95;13.05;;;;;;;;;;4908708;29;20191;-85
2021/12/17 16:51:40;;;;;;;24.75;12.80;;;;;;;;;;4908418;29;20209;-84
2021/12/17 16:54:07;;;;;;;20.85;13.60;;;;;;;;;;4905911;29;20199;-83
2021/12/17 16:56:33;;;;;;;24.98;12.57;;;;;;;;;;4911418;29;20382;-80
2021/12/17 16:58:59;;;;;;;22.25;12.98;;;;;;;;;;4923855;29;20201;-83
2021/12/17 17:01:27;;;;;;;19.90;12.00;;;;;;;;;;4960140;29;20180;-82
2021/12/17 17:03:54;;;;;;;16.88;12.15;;;;;;;;;;4963007;28;20275;-81
2021/12/17 17:06:22;;;;;;;19.65;12.20;;;;;;;;;;4958941;29;24209;-82
2021/12/17 17:08:49;;;;;;;20.35;12.15;;;;;;;;;;4966752;29;20184;-81
2021/12/17 17:11:16;;;;;;;22.00;13.48;;;;;;;;;;4956483;29;20213;-81
2021/12/17 17:13:42;;;;;;;17.15;11.75;;;;;;;;;;4959857;29;20180;-82
2021/12/17 17:16:09;;;;;;;21.70;12.73;;;;;;;;;;4943176;29;20176;-81
2021/12/17 17:18:36;;;;;;;26.00;13.13;;;;;;;;;;4949076;29;20245;-81
2021/12/17 17:21:03;;;;;;;21.02;13.52;;;;;;;;;;4966358;28;20184;-81
2021/12/17 17:23:31;;;;;;;22.13;12.75;;;;;;;;;;4962059;28;20183;-82
2021/12/17 17:25:57;;;;;;;24.30;14.18;;;;;;;;;;4944744;29;20185;-81
2021/12/17 17:28:23;;;;;;;27.45;15.25;;;;;;;;;;4965414;28;20212;-82
2021/12/17 17:30:52;;;;;;;26.20;14.82;;;;;;;;;;4969463;28;20229;-82
2021/12/17 17:33:19;;;;;;;19.10;12.63;;;;;;;;;;4953775;28;20180;-81
2021/12/17 17:35:45;;;;;;;25.45;12.50;;;;;;;;;;4967408;29;20176;-81
2021/12/17 17:38:11;;;;;;;21.35;12.20;;;;;;;;;;4963275;28;20215;-81
2021/12/17 17:40:37;;;;;;;21.65;13.45;;;;;;;;;;4963476;28;20658;-82
2021/12/17 17:43:08;;;;;;;20.02;12.38;;;;;;;;;;4964705;28;20193;-82
2021/12/17 17:45:35;;;;;;;25.05;13.98;;;;;;;;;;4960196;29;20293;-81